Time;durP1;ratioP1;P1;durP2;ratioP2;P2;SDS_P1;SDS_P2;PMS_P1;PMS_P2;Temp;Humidity;BMP_temperature;BMP_pressure;BME280_temperature;BME280_humidity;BME280_pressure;Samples;Min_cycle;Max_cycle;Signal;HPM_P1;HPM_P2
2023/07/10 00:00:51;;;;;;;8.88;5.05;;;25.40;1.00;;;;;;7387430;19;20018;-68
2023/07/10 00:03:21;;;;;;;8.32;4.72;;;25.40;1.00;;;;;;7388009;19;20082;-68
2023/07/10 00:05:51;;;;;;;9.13;4.80;;;25.40;1.00;;;;;;7388544;19;20043;-68
2023/07/10 00:08:21;;;;;;;9.70;5.53;;;25.40;1.00;;;;;;7388913;19;20018;-68
2023/07/10 00:10:52;;;;;;;6.38;4.60;;;25.30;1.00;;;;;;7387001;19;20010;-68
2023/07/10 00:13:23;;;;;;;6.07;4.55;;;25.20;1.00;;;;;;7392011;19;20486;-68
2023/07/10 00:15:56;;;;;;;7.40;4.45;;;25.10;1.00;;;;;;7388509;19;20020;-67
2023/07/10 00:18:26;;;;;;;5.80;4.73;;;25.10;1.00;;;;;;7386906;19;20477;-67
2023/07/10 00:20:56;;;;;;;10.77;5.15;;;24.90;1.00;;;;;;7387935;19;20080;-68
2023/07/10 00:23:26;;;;;;;9.15;5.18;;;24.80;1.00;;;;;;7391066;19;20399;-68
2023/07/10 00:25:56;;;;;;;8.60;5.18;;;24.80;1.00;;;;;;7389224;19;20033;-69
2023/07/10 00:28:26;;;;;;;8.90;5.22;;;24.80;1.00;;;;;;7390628;19;20113;-70
2023/07/10 00:30:58;;;;;;;6.88;4.65;;;24.70;1.00;;;;;;7387264;19;20052;-67
2023/07/10 00:33:28;;;;;;;7.45;4.88;;;24.60;1.00;;;;;;7389194;19;20018;-68
2023/07/10 00:35:58;;;;;;;9.10;4.82;;;24.70;1.00;;;;;;7389586;19;20045;-68
2023/07/10 00:38:31;;;;;;;7.60;5.30;;;24.60;1.00;;;;;;7388811;19;20362;-69
2023/07/10 00:41:04;;;;;;;8.03;4.53;;;24.70;1.00;;;;;;7387198;19;20018;-68
2023/07/10 00:43:38;;;;;;;8.50;4.50;;;24.70;1.00;;;;;;7385906;19;20015;-68
2023/07/10 00:46:18;;;;;;;8.30;5.13;;;24.80;1.00;;;;;;7391356;19;20010;-68
2023/07/10 00:48:53;;;;;;;8.35;4.93;;;24.70;1.00;;;;;;7388318;19;20022;-67
2023/07/10 00:51:28;;;;;;;8.48;4.88;;;24.70;1.00;;;;;;7388953;19;20143;-68
2023/07/10 00:54:00;;;;;;;7.45;4.88;;;24.70;1.00;;;;;;7390324;19;20014;-69
2023/07/10 00:56:39;;;;;;;7.70;5.30;;;24.60;1.00;;;;;;7387615;19;20011;-69
2023/07/10 00:59:25;;;;;;;8.30;4.95;;;24.50;1.00;;;;;;7390641;19;20006;-69
2023/07/10 01:02:21;;;;;;;7.25;4.70;;;24.50;1.00;;;;;;7386853;19;20493;-69
2023/07/10 01:04:55;;;;;;;8.57;5.07;;;24.50;1.00;;;;;;7386740;19;20014;-68
2023/07/10 01:07:26;;;;;;;7.75;5.70;;;24.60;1.00;;;;;;7386814;19;20018;-68
2023/07/10 01:09:59;;;;;;;7.93;4.82;;;24.60;1.00;;;;;;7386229;19;20107;-68
2023/07/10 01:12:32;;;;;;;14.75;5.30;;;24.60;1.00;;;;;;7386776;19;20042;-69
2023/07/10 01:15:03;;;;;;;10.38;4.93;;;24.70;1.00;;;;;;7385757;19;20097;-70
2023/07/10 01:17:37;;;;;;;6.97;5.10;;;24.70;1.00;;;;;;7384396;19;20482;-68
2023/07/10 01:20:35;;;;;;;6.97;4.80;;;24.70;1.00;;;;;;7385686;19;20336;-68
2023/07/10 01:23:08;;;;;;;7.07;5.28;;;24.70;1.00;;;;;;7387077;19;20019;-69
2023/07/10 01:25:44;;;;;;;6.32;4.82;;;24.80;1.00;;;;;;7385953;19;20424;-69
2023/07/10 01:28:18;;;;;;;9.63;5.32;;;24.90;1.00;;;;;;7389043;19;20018;-69
2023/07/10 01:30:51;;;;;;;5.35;4.63;;;24.80;1.00;;;;;;7385037;19;20211;-69
2023/07/10 01:33:26;;;;;;;8.75;4.80;;;24.90;1.00;;;;;;7389014;19;20015;-69
2023/07/10 01:35:59;;;;;;;7.90;5.18;;;24.80;1.00;;;;;;7385903;19;20554;-69
2023/07/10 01:38:40;;;;;;;9.50;4.90;;;24.80;1.00;;;;;;7387346;19;20023;-69
2023/07/10 01:41:25;;;;;;;7.78;4.78;;;24.70;1.00;;;;;;7384195;19;20032;-69
2023/07/10 01:43:55;;;;;;;9.00;5.28;;;24.70;1.00;;;;;;7391685;19;20082;-69
2023/07/10 01:46:27;;;;;;;6.88;5.03;;;24.70;1.00;;;;;;7399110;19;20046;-70
2023/07/10 01:49:01;;;;;;;8.30;5.05;;;24.70;1.00;;;;;;7391788;19;20030;-69
2023/07/10 01:51:31;;;;;;;7.20;5.30;;;24.60;1.00;;;;;;7387721;19;20039;-68
2023/07/10 01:54:06;;;;;;;8.93;5.47;;;24.60;1.00;;;;;;7392958;19;20482;-68
2023/07/10 01:56:36;;;;;;;8.07;4.68;;;24.50;1.00;;;;;;7392594;19;20475;-69
2023/07/10 01:59:06;;;;;;;9.38;4.72;;;24.50;1.00;;;;;;7393879;19;20030;-69
2023/07/10 02:01:36;;;;;;;8.35;5.18;;;24.50;1.00;;;;;;7389879;19;20011;-69
2023/07/10 02:04:11;;;;;;;6.93;4.82;;;24.50;1.00;;;;;;7392524;19;20603;-69
2023/07/10 02:06:42;;;;;;;10.32;5.22;;;24.40;1.00;;;;;;7392697;19;20014;-68
2023/07/10 02:09:14;;;;;;;9.60;5.55;;;24.40;1.00;;;;;;7393278;19;20050;-69
2023/07/10 02:11:44;;;;;;;11.52;5.18;;;24.30;1.00;;;;;;7392711;19;20018;-69
2023/07/10 02:14:14;;;;;;;8.10;4.75;;;24.50;1.00;;;;;;7391965;19;20074;-69
2023/07/10 02:16:44;;;;;;;9.63;4.55;;;24.50;1.00;;;;;;7391660;19;20025;-69
2023/07/10 02:19:14;;;;;;;9.07;5.05;;;24.40;1.00;;;;;;7394480;19;20048;-69
2023/07/10 02:21:44;;;;;;;11.40;5.05;;;24.40;1.00;;;;;;7391426;19;20015;-70
2023/07/10 02:24:17;;;;;;;8.88;4.95;;;24.40;1.00;;;;;;7391695;19;20533;-69
2023/07/10 02:26:47;;;;;;;10.93;5.38;;;24.40;1.00;;;;;;7392693;19;20109;-69
2023/07/10 02:29:17;;;;;;;9.10;4.88;;;24.40;1.00;;;;;;7393128;19;20404;-69
2023/07/10 02:31:47;;;;;;;10.57;4.90;;;24.40;1.00;;;;;;7392050;19;20518;-69
2023/07/10 02:34:17;;;;;;;7.68;4.88;;;24.40;1.00;;;;;;7395769;19;20025;-68
2023/07/10 02:36:47;;;;;;;7.55;5.10;;;24.40;1.00;;;;;;7390655;19;20038;-69
2023/07/10 02:39:19;;;;;;;7.90;5.63;;;24.40;1.00;;;;;;7394411;19;20038;-69
2023/07/10 02:41:50;;;;;;;8.95;5.38;;;24.40;1.00;;;;;;7394155;19;20104;-69
2023/07/10 02:44:20;;;;;;;9.85;5.47;;;24.40;1.00;;;;;;7391038;19;20011;-68
2023/07/10 02:46:52;;;;;;;11.82;5.03;;;24.50;1.00;;;;;;7395010;19;20011;-68
2023/07/10 02:49:22;;;;;;;10.07;5.35;;;24.60;1.00;;;;;;7392172;19;20462;-68
2023/07/10 02:51:52;;;;;;;9.88;4.80;;;24.50;1.00;;;;;;7391475;19;20018;-68
2023/07/10 02:54:24;;;;;;;11.85;5.00;;;24.40;1.00;;;;;;7392696;19;20014;-68
2023/07/10 02:56:54;;;;;;;10.13;4.80;;;24.50;1.00;;;;;;7391169;19;20107;-68
2023/07/10 02:59:28;;;;;;;8.02;4.88;;;24.50;1.00;;;;;;7392668;19;20054;-68
2023/07/10 03:01:59;;;;;;;9.20;4.75;;;24.40;1.00;;;;;;7389949;19;20376;-68
2023/07/10 03:04:29;;;;;;;12.88;5.07;;;24.30;1.00;;;;;;7390959;19;20042;-68
2023/07/10 03:06:59;;;;;;;15.73;5.78;;;24.20;1.00;;;;;;7390456;19;20035;-68
2023/07/10 03:09:35;;;;;;;7.57;4.78;;;24.20;1.00;;;;;;7391821;19;20030;-69
2023/07/10 03:12:05;;;;;;;10.38;5.40;;;24.20;1.00;;;;;;7393861;19;20021;-69
2023/07/10 03:14:35;;;;;;;10.70;5.18;;;24.20;1.00;;;;;;7389895;19;20081;-69
2023/07/10 03:17:06;;;;;;;7.47;5.10;;;24.20;1.00;;;;;;7388708;19;20081;-68
2023/07/10 03:19:37;;;;;;;7.70;4.78;;;24.20;1.00;;;;;;7392857;19;20031;-68
2023/07/10 03:22:07;;;;;;;8.68;5.03;;;24.10;1.00;;;;;;7390264;19;20022;-69
2023/07/10 03:24:40;;;;;;;7.70;4.93;;;24.20;1.00;;;;;;7390308;19;20014;-69
2023/07/10 03:27:10;;;;;;;7.63;5.32;;;24.20;1.00;;;;;;7391337;19;20018;-69
2023/07/10 03:29:40;;;;;;;14.57;5.30;;;24.20;1.00;;;;;;7391754;19;20058;-69
2023/07/10 03:32:11;;;;;;;7.18;4.50;;;24.30;1.00;;;;;;7390112;19;20039;-69
2023/07/10 03:34:41;;;;;;;7.28;4.63;;;24.40;1.00;;;;;;7389010;19;20018;-69
2023/07/10 03:37:11;;;;;;;7.55;5.22;;;24.30;1.00;;;;;;7390044;19;20025;-69
2023/07/10 03:39:44;;;;;;;20.48;5.35;;;24.40;1.00;;;;;;7391962;19;20086;-69
2023/07/10 03:42:14;;;;;;;9.32;5.05;;;24.30;1.00;;;;;;7389773;19;20021;-68
2023/07/10 03:44:44;;;;;;;9.60;4.95;;;24.10;1.00;;;;;;7390232;19;20069;-68
2023/07/10 03:47:14;;;;;;;9.55;5.32;;;23.90;1.00;;;;;;7393650;19;20014;-69
2023/07/10 03:49:44;;;;;;;8.63;4.90;;;23.90;1.00;;;;;;7391006;19;20466;-69
2023/07/10 03:52:14;;;;;;;12.48;5.35;;;23.90;1.00;;;;;;7389201;19;20024;-68
2023/07/10 03:54:47;;;;;;;7.97;4.95;;;23.80;1.00;;;;;;7389715;19;20011;-69
2023/07/10 03:57:17;;;;;;;10.10;4.97;;;23.80;1.00;;;;;;7389439;19;20110;-69
2023/07/10 03:59:47;;;;;;;10.60;5.05;;;23.80;1.00;;;;;;7391079;19;20522;-69
2023/07/10 04:02:17;;;;;;;9.65;5.10;;;23.90;1.00;;;;;;7388786;19;20011;-69
2023/07/10 04:04:47;;;;;;;7.43;4.72;;;24.00;1.00;;;;;;7388732;19;20015;-69
2023/07/10 04:07:19;;;;;;;10.68;4.72;;;24.00;1.00;;;;;;7388941;19;20027;-69
2023/07/10 04:09:53;;;;;;;13.07;5.18;;;24.00;1.00;;;;;;7390830;19;20022;-69
2023/07/10 04:12:23;;;;;;;9.43;5.03;;;24.00;1.00;;;;;;7388815;19;20573;-69
2023/07/10 04:14:57;;;;;;;10.87;5.13;;;24.00;1.00;;;;;;7386572;19;20014;-69
2023/07/10 04:17:27;;;;;;;9.65;5.30;;;24.20;1.00;;;;;;7388315;19;20736;-69
2023/07/10 04:19:57;;;;;;;8.00;5.43;;;24.30;1.00;;;;;;7390652;19;20014;-69
2023/07/10 04:22:26;;;;;;;9.07;4.70;;;24.30;1.00;;;;;;7387903;19;20470;-69
2023/07/10 04:25:04;;;;;;;8.60;4.85;;;24.40;1.00;;;;;;7388327;19;20081;-69
2023/07/10 04:27:34;;;;;;;10.35;4.72;;;24.40;1.00;;;;;;7390551;19;20018;-69
2023/07/10 04:30:04;;;;;;;12.25;4.70;;;24.50;1.00;;;;;;7390188;19;20102;-69
2023/07/10 04:32:34;;;;;;;7.57;4.30;;;24.60;1.00;;;;;;7386837;19;20015;-70
2023/07/10 04:35:03;;;;;;;8.73;5.18;;;24.70;1.00;;;;;;7387627;19;20510;-69
2023/07/10 04:37:33;;;;;;;6.72;4.50;;;24.80;1.00;;;;;;7387553;19;20014;-68
2023/07/10 04:40:07;;;;;;;10.20;5.20;;;24.60;1.00;;;;;;7390219;19;20038;-69
2023/07/10 04:42:38;;;;;;;7.25;4.40;;;24.60;1.00;;;;;;7387710;19;20035;-69
2023/07/10 04:45:09;;;;;;;9.45;5.22;;;24.60;1.00;;;;;;7388736;19;20018;-70
2023/07/10 04:47:39;;;;;;;9.95;5.20;;;24.50;1.00;;;;;;7387777;19;20364;-69
2023/07/10 04:50:11;;;;;;;7.30;5.00;;;24.40;1.00;;;;;;7389629;19;20482;-69
2023/07/10 04:52:40;;;;;;;12.15;5.18;;;24.30;1.00;;;;;;7387109;19;20296;-69
2023/07/10 04:55:13;;;;;;;10.15;5.03;;;24.30;1.00;;;;;;7386799;19;20014;-69
2023/07/10 04:57:43;;;;;;;10.32;5.15;;;24.30;1.00;;;;;;7386874;19;20038;-69
2023/07/10 05:00:14;;;;;;;10.15;4.95;;;24.30;1.00;;;;;;7388728;19;20038;-69
2023/07/10 05:02:44;;;;;;;12.65;5.78;;;24.30;1.00;;;;;;7387175;19;20042;-69
2023/07/10 05:05:14;;;;;;;18.55;6.35;;;24.30;1.00;;;;;;7386421;19;20015;-69
2023/07/10 05:07:44;;;;;;;10.07;5.15;;;24.30;1.00;;;;;;7387220;19;20010;-68
2023/07/10 05:10:17;;;;;;;13.23;5.68;;;24.50;1.00;;;;;;7389183;19;20035;-69
2023/07/10 05:12:47;;;;;;;7.63;4.85;;;25.30;1.00;;;;;;7387272;19;20374;-69
2023/07/10 05:15:17;;;;;;;5.65;4.85;;;27.20;1.00;;;;;;7386785;19;20042;-68
2023/07/10 05:17:47;;;;;;;8.63;5.50;;;28.00;1.00;;;;;;7387614;19;20361;-69
2023/07/10 05:20:17;;;;;;;8.15;4.75;;;28.70;1.00;;;;;;7389067;19;20015;-70
2023/07/10 05:22:47;;;;;;;8.57;4.88;;;29.70;1.00;;;;;;7386592;19;20025;-69
2023/07/10 05:25:20;;;;;;;12.00;4.57;;;29.40;1.00;;;;;;7390038;19;20018;-69
2023/07/10 05:27:50;;;;;;;8.52;5.22;;;29.30;1.00;;;;;;7415367;19;20018;-70
2023/07/10 05:30:20;;;;;;;8.18;4.65;;;29.30;1.00;;;;;;7403057;19;20018;-69
2023/07/10 05:32:50;;;;;;;9.98;5.28;;;29.70;1.00;;;;;;7395197;19;20018;-69
2023/07/10 05:35:20;;;;;;;8.30;4.75;;;30.20;1.00;;;;;;7392986;19;20018;-69
2023/07/10 05:37:50;;;;;;;11.80;4.70;;;30.00;1.00;;;;;;7393937;19;21176;-69
2023/07/10 05:40:23;;;;;;;7.18;4.82;;;29.40;1.00;;;;;;7394283;19;20018;-70
2023/07/10 05:42:53;;;;;;;7.75;4.88;;;29.40;1.00;;;;;;7390889;19;20014;-69
2023/07/10 05:45:23;;;;;;;11.07;4.80;;;30.40;1.00;;;;;;7393948;19;20053;-69
2023/07/10 05:47:53;;;;;;;6.50;4.65;;;30.60;1.00;;;;;;7391663;19;20829;-70
2023/07/10 05:50:23;;;;;;;6.68;4.57;;;29.60;1.00;;;;;;7394339;19;20010;-70
2023/07/10 05:52:53;;;;;;;13.30;5.28;;;29.00;1.00;;;;;;7392353;19;20021;-70
2023/07/10 05:55:25;;;;;;;8.93;4.20;;;29.40;1.00;;;;;;7392112;19;20101;-70
2023/07/10 05:57:56;;;;;;;7.05;4.72;;;29.00;1.00;;;;;;7392947;19;20025;-68
2023/07/10 06:00:26;;;;;;;7.28;4.68;;;29.30;1.00;;;;;;7394550;19;20018;-70
2023/07/10 06:02:58;;;;;;;10.60;4.85;;;29.40;1.00;;;;;;7391112;19;20014;-70
2023/07/10 06:05:27;;;;;;;8.38;4.72;;;30.00;1.00;;;;;;7389812;19;20363;-68
2023/07/10 06:07:58;;;;;;;7.47;4.70;;;30.20;1.00;;;;;;7391898;19;20018;-68
2023/07/10 06:10:30;;;;;;;7.13;4.47;;;30.50;1.00;;;;;;7394313;19;20038;-69
2023/07/10 06:13:00;;;;;;;8.45;4.25;;;31.10;1.00;;;;;;7391672;19;20403;-70
2023/07/10 06:15:30;;;;;;;11.30;4.78;;;28.70;1.00;;;;;;7391877;19;20010;-71
2023/07/10 06:18:00;;;;;;;9.65;5.00;;;29.10;1.00;;;;;;7391249;19;20010;-71
2023/07/10 06:20:30;;;;;;;8.23;5.30;;;28.70;1.00;;;;;;7393719;19;20118;-71
2023/07/10 06:23:06;;;;;;;8.52;4.40;;;29.10;1.00;;;;;;7391242;19;20019;-72
2023/07/10 06:25:44;;;;;;;8.18;4.30;;;28.70;1.00;;;;;;7391249;19;20022;-70
2023/07/10 06:28:14;;;;;;;8.55;4.45;;;28.80;1.00;;;;;;7395381;19;20014;-70
2023/07/10 06:30:46;;;;;;;9.98;4.72;;;28.90;1.00;;;;;;7391394;19;20479;-69
2023/07/10 06:33:16;;;;;;;8.23;4.30;;;29.90;1.00;;;;;;7391500;19;20081;-70
2023/07/10 06:35:46;;;;;;;10.02;5.30;;;29.70;1.00;;;;;;7391908;19;20039;-70
2023/07/10 06:38:17;;;;;;;9.90;4.85;;;29.20;1.00;;;;;;7390862;19;20018;-70
2023/07/10 06:40:53;;;;;;;7.85;5.28;;;29.80;1.00;;;;;;7393635;19;20016;-70
2023/07/10 06:43:23;;;;;;;11.70;5.10;;;27.70;1.00;;;;;;7394265;19;20014;-69
2023/07/10 06:45:53;;;;;;;6.45;4.82;;;27.50;1.00;;;;;;7393964;19;20023;-71
2023/07/10 06:48:27;;;;;;;10.47;4.77;;;27.70;1.00;;;;;;7394603;19;20048;-68
2023/07/10 06:50:59;;;;;;;10.50;5.40;;;28.10;1.00;;;;;;7395605;19;20011;-72
2023/07/10 06:53:32;;;;;;;10.85;5.03;;;27.80;1.00;;;;;;7391546;19;20491;-70
2023/07/10 06:56:05;;;;;;;7.03;4.75;;;27.70;1.00;;;;;;7394550;19;20018;-70
2023/07/10 06:58:37;;;;;;;8.75;4.55;;;27.50;1.00;;;;;;7390576;19;20482;-71
2023/07/10 07:01:07;;;;;;;12.05;4.70;;;27.90;1.00;;;;;;7393908;19;20031;-70
2023/07/10 07:03:40;;;;;;;6.25;4.22;;;28.10;1.00;;;;;;7391879;19;20007;-69
2023/07/10 07:06:10;;;;;;;7.82;4.10;;;27.70;1.00;;;;;;7391602;19;20017;-70
2023/07/10 07:08:40;;;;;;;10.23;4.50;;;27.80;1.00;;;;;;7393705;19;20027;-70
2023/07/10 07:11:13;;;;;;;6.10;4.68;;;27.90;1.00;;;;;;7392815;19;20578;-70
2023/07/10 07:13:43;;;;;;;7.85;3.55;;;27.90;1.00;;;;;;7391407;19;20015;-70
2023/07/10 07:16:13;;;;;;;10.15;4.85;;;27.90;1.00;;;;;;7392097;19;20019;-69
2023/07/10 07:18:43;;;;;;;7.28;3.85;;;27.60;1.00;;;;;;7374531;19;20131;-69
2023/07/10 07:21:17;;;;;;;6.03;4.10;;;27.30;1.00;;;;;;7391419;19;20013;-69
2023/07/10 07:23:47;;;;;;;4.78;3.58;;;27.50;1.00;;;;;;7392142;19;20366;-71
2023/07/10 07:26:19;;;;;;;6.28;4.00;;;27.10;1.00;;;;;;7394794;19;20508;-70
2023/07/10 07:28:50;;;;;;;4.78;3.70;;;27.30;1.00;;;;;;7391319;19;20014;-70
2023/07/10 07:31:20;;;;;;;4.45;3.50;;;27.50;1.00;;;;;;7390875;19;20087;-69
2023/07/10 07:33:51;;;;;;;5.82;3.42;;;27.50;1.00;;;;;;7391152;19;20021;-70
2023/07/10 07:36:21;;;;;;;6.05;3.65;;;27.80;1.00;;;;;;7390437;19;20022;-70
2023/07/10 07:38:51;;;;;;;5.65;3.70;;;28.50;1.00;;;;;;7391622;19;20018;-70
2023/07/10 07:41:23;;;;;;;7.72;3.20;;;28.40;1.00;;;;;;7387976;19;20343;-70
2023/07/10 07:43:53;;;;;;;7.28;3.75;;;28.00;1.00;;;;;;7388440;19;20010;-70
2023/07/10 07:46:23;;;;;;;5.88;3.55;;;27.90;1.00;;;;;;7391295;19;20014;-70
2023/07/10 07:48:53;;;;;;;6.72;3.80;;;28.40;1.00;;;;;;7387772;19;20490;-70
2023/07/10 07:51:23;;;;;;;7.20;3.75;;;27.90;1.00;;;;;;7392915;19;20021;-69
2023/07/10 07:54:04;;;;;;;7.03;3.78;;;28.00;1.00;;;;;;7389333;19;20026;-70
2023/07/10 07:56:37;;;;;;;5.60;3.15;;;28.20;1.00;;;;;;7389195;19;20014;-70
2023/07/10 07:59:07;;;;;;;4.43;3.30;;;28.60;1.00;;;;;;7388884;19;20022;-70
2023/07/10 08:01:37;;;;;;;4.60;3.58;;;28.00;1.00;;;;;;7386958;19;20022;-69
2023/07/10 08:04:07;;;;;;;5.05;3.28;;;28.70;1.00;;;;;;7388407;19;20502;-69
2023/07/10 08:06:37;;;;;;;13.02;4.10;;;28.50;1.00;;;;;;7387337;19;20042;-69
2023/07/10 08:09:07;;;;;;;6.82;3.70;;;28.70;1.00;;;;;;7387012;19;20027;-69
2023/07/10 08:11:39;;;;;;;8.50;4.43;;;28.50;1.00;;;;;;7385272;19;20046;-69
2023/07/10 08:14:09;;;;;;;5.25;3.70;;;28.00;1.00;;;;;;7386961;19;20493;-69
2023/07/10 08:16:39;;;;;;;8.38;4.10;;;28.50;1.00;;;;;;7387771;19;20014;-70
2023/07/10 08:19:09;;;;;;;5.47;3.72;;;28.40;1.00;;;;;;7386917;19;20014;-70
2023/07/10 08:21:39;;;;;;;12.80;3.63;;;28.50;1.00;;;;;;7385982;19;20018;-70
2023/07/10 08:24:09;;;;;;;4.45;3.47;;;29.10;1.00;;;;;;7387765;19;20023;-70
2023/07/10 08:26:42;;;;;;;9.13;3.38;;;29.00;1.00;;;;;;7391690;19;20074;-70
2023/07/10 08:29:28;;;;;;;4.18;3.55;;;29.10;1.00;;;;;;7388445;19;20023;-70
2023/07/10 08:31:59;;;;;;;9.07;4.22;;;28.70;1.00;;;;;;7388511;19;20039;-69
2023/07/10 08:34:31;;;;;;;5.88;4.00;;;28.60;1.00;;;;;;7387620;19;20039;-70
2023/07/10 08:37:01;;;;;;;8.68;3.92;;;27.60;1.00;;;;;;7387042;19;20028;-69
2023/07/10 08:39:31;;;;;;;5.55;3.60;;;27.90;1.00;;;;;;7386614;19;20036;-69
2023/07/10 08:42:10;;;;;;;6.13;4.28;;;28.60;1.00;;;;;;7388298;19;20339;-69
2023/07/10 08:44:41;;;;;;;9.63;3.90;;;28.50;1.00;;;;;;7387336;19;20006;-70
2023/07/10 08:47:17;;;;;;;7.30;4.03;;;28.70;1.00;;;;;;7391824;19;20081;-70
2023/07/10 08:49:54;;;;;;;6.07;3.72;;;27.90;1.00;;;;;;7388858;19;20048;-69
2023/07/10 08:52:34;;;;;;;5.75;4.03;;;28.20;1.00;;;;;;7387311;19;20083;-69
2023/07/10 08:55:05;;;;;;;7.22;4.32;;;28.60;1.00;;;;;;7386068;19;20010;-69
2023/07/10 08:57:43;;;;;;;6.90;4.65;;;28.40;1.00;;;;;;7387507;19;20167;-69
2023/07/10 09:00:17;;;;;;;9.77;4.38;;;28.70;1.00;;;;;;7387970;19;20546;-69
2023/07/10 09:02:55;;;;;;;7.90;4.22;;;28.30;1.00;;;;;;7396907;19;20022;-69
2023/07/10 09:05:29;;;;;;;7.75;4.85;;;28.70;1.00;;;;;;7395605;19;20022;-70
2023/07/10 09:08:09;;;;;;;8.43;4.90;;;27.90;1.00;;;;;;7409467;19;20014;-70
2023/07/10 09:10:42;;;;;;;8.00;3.97;;;28.00;1.00;;;;;;7410788;19;20018;-71
2023/07/10 09:13:19;;;;;;;7.05;4.28;;;28.60;1.00;;;;;;7404841;19;20519;-69
2023/07/10 09:15:52;;;;;;;9.82;3.97;;;28.50;1.00;;;;;;7399306;19;20010;-69
2023/07/10 09:18:26;;;;;;;5.97;4.07;;;28.70;1.00;;;;;;7393766;19;20019;-70
2023/07/10 09:21:00;;;;;;;6.60;4.22;;;29.00;1.00;;;;;;7396531;19;20285;-69
2023/07/10 09:23:33;;;;;;;7.18;4.93;;;29.50;1.00;;;;;;7393303;19;20423;-70
2023/07/10 09:26:11;;;;;;;4.63;3.97;;;28.70;1.00;;;;;;7398162;19;20014;-70
2023/07/10 09:28:54;;;;;;;7.38;4.82;;;28.60;1.00;;;;;;7394486;19;20027;-71
2023/07/10 09:31:45;;;;;;;9.65;4.70;;;28.10;1.00;;;;;;7395322;19;20507;-71
2023/07/10 09:34:15;;;;;;;9.18;4.43;;;27.60;1.00;;;;;;7391992;19;20090;-71
2023/07/10 09:36:51;;;;;;;7.05;4.30;;;28.00;1.00;;;;;;7394537;19;20474;-71
2023/07/10 09:39:21;;;;;;;5.70;4.10;;;28.40;1.00;;;;;;7392071;19;20018;-72
2023/07/10 09:41:51;;;;;;;5.30;4.32;;;28.60;1.00;;;;;;7393581;19;20077;-70
2023/07/10 09:44:25;;;;;;;8.52;4.30;;;28.30;1.00;;;;;;7393158;19;20086;-71
2023/07/10 09:47:04;;;;;;;11.20;4.50;;;29.00;1.00;;;;;;7396772;19;20014;-71
2023/07/10 09:49:38;;;;;;;6.78;4.85;;;27.80;1.00;;;;;;7392230;19;20041;-71
2023/07/10 09:52:18;;;;;;;5.88;4.10;;;27.90;1.00;;;;;;7394510;19;20017;-71
2023/07/10 09:54:48;;;;;;;8.93;4.82;;;28.70;1.00;;;;;;7390608;19;20032;-70
2023/07/10 09:57:20;;;;;;;6.53;4.38;;;28.60;1.00;;;;;;7394320;19;20078;-71
2023/07/10 09:59:55;;;;;;;7.85;4.43;;;29.10;1.00;;;;;;7391808;19;20014;-71
2023/07/10 10:02:27;;;;;;;5.90;4.07;;;29.20;1.00;;;;;;7392236;19;20081;-72
2023/07/10 10:05:19;;;;;;;7.47;4.43;;;29.70;1.00;;;;;;7390166;19;20577;-70
2023/07/10 10:07:51;;;;;;;7.15;4.10;;;29.40;1.00;;;;;;7389317;19;20011;-72
2023/07/10 10:10:27;;;;;;;7.30;4.03;;;29.60;1.00;;;;;;7391315;19;20511;-72
2023/07/10 10:13:07;;;;;;;6.95;4.40;;;29.10;1.00;;;;;;7389606;19;20015;-72
2023/07/10 10:15:49;;;;;;;8.77;4.30;;;29.30;1.00;;;;;;7392333;19;20015;-74
2023/07/10 10:18:39;;;;;;;6.55;4.07;;;29.10;1.00;;;;;;7392719;19;20018;-72
2023/07/10 10:21:12;;;;;;;6.82;4.05;;;29.00;1.00;;;;;;7392083;19;20021;-71
2023/07/10 10:23:44;;;;;;;8.10;4.32;;;29.50;1.00;;;;;;7392161;19;20016;-72
2023/07/10 10:26:46;;;;;;;8.43;4.72;;;29.60;1.00;;;;;;7395701;19;20031;-72
2023/07/10 10:29:29;;;;;;;5.28;4.10;;;29.30;1.00;;;;;;7392337;19;20011;-72
2023/07/10 10:32:11;;;;;;;4.82;4.18;;;29.70;1.00;;;;;;7390608;19;20022;-73
2023/07/10 10:34:48;;;;;;;7.45;4.30;;;29.90;1.00;;;;;;7390101;19;20083;-72
2023/07/10 10:37:31;;;;;;;7.30;4.43;;;29.70;1.00;;;;;;7392495;19;20085;-72
2023/07/10 10:40:05;;;;;;;7.25;4.72;;;29.40;1.00;;;;;;7390059;19;20021;-72
2023/07/10 10:42:43;;;;;;;6.07;4.32;;;29.50;1.00;;;;;;7393914;19;20019;-72
2023/07/10 10:45:18;;;;;;;8.98;4.63;;;29.70;1.00;;;;;;7394106;19;20035;-71
2023/07/10 10:48:00;;;;;;;8.55;4.85;;;29.20;1.00;;;;;;7391039;19;20014;-71
2023/07/10 10:50:43;;;;;;;6.47;5.32;;;29.70;1.00;;;;;;7391433;19;20021;-72
2023/07/10 10:53:23;;;;;;;9.37;4.33;;;30.00;1.00;;;;;;7395494;19;20503;-72
2023/07/10 10:56:04;;;;;;;6.10;4.53;;;30.70;1.00;;;;;;7394953;19;20314;-72
2023/07/10 10:58:47;;;;;;;9.02;4.75;;;30.80;1.00;;;;;;7390990;19;20014;-73
2023/07/10 11:01:33;;;;;;;4.78;4.20;;;29.90;1.00;;;;;;7392530;19;20042;-71
2023/07/10 11:04:16;;;;;;;6.60;4.38;;;29.80;1.00;;;;;;7390737;19;20022;-74
2023/07/10 11:06:50;;;;;;;7.00;4.20;;;30.10;1.00;;;;;;7390438;19;20043;-73
2023/07/10 11:09:24;;;;;;;7.13;4.18;;;30.10;1.00;;;;;;7390245;19;20038;-72
2023/07/10 11:11:55;;;;;;;6.63;4.32;;;30.50;1.00;;;;;;7395346;19;20010;-72
2023/07/10 11:14:26;;;;;;;6.65;4.22;;;29.90;1.00;;;;;;7393343;19;20011;-72
2023/07/10 11:16:56;;;;;;;5.78;4.40;;;29.30;1.00;;;;;;7397091;19;20154;-72
2023/07/10 11:19:31;;;;;;;10.10;4.50;;;30.10;1.00;;;;;;7390267;19;20021;-72
2023/07/10 11:22:13;;;;;;;9.40;4.95;;;29.80;1.00;;;;;;7394623;19;20120;-73
2023/07/10 11:24:52;;;;;;;8.35;4.25;;;30.40;1.00;;;;;;7390732;19;20463;-73
2023/07/10 11:27:25;;;;;;;7.95;4.20;;;30.30;1.00;;;;;;7390523;19;20039;-72
2023/07/10 11:30:00;;;;;;;6.72;4.20;;;30.40;1.00;;;;;;7388857;19;20045;-72
2023/07/10 11:32:30;;;;;;;6.47;3.90;;;30.70;1.00;;;;;;7390002;19;20520;-71
2023/07/10 11:35:21;;;;;;;6.97;4.20;;;30.70;1.00;;;;;;7389423;19;20011;-73
2023/07/10 11:38:14;;;;;;;6.28;4.05;;;30.30;1.00;;;;;;7390837;19;20078;-73
2023/07/10 11:40:55;;;;;;;7.07;4.40;;;30.20;1.00;;;;;;7393165;19;20010;-73
2023/07/10 11:43:57;;;;;;;6.25;3.88;;;30.60;1.00;;;;;;7394691;19;20013;-71
2023/07/10 11:46:33;;;;;;;7.13;3.78;;;30.60;1.00;;;;;;7393810;19;20049;-73
2023/07/10 11:49:19;;;;;;;9.40;4.55;;;31.50;1.00;;;;;;7394212;19;20380;-72
2023/07/10 11:52:19;;;;;;;5.60;3.60;;;31.00;1.00;;;;;;7393637;19;20024;-74
2023/07/10 11:55:14;;;;;;;5.57;4.10;;;31.00;1.00;;;;;;7363872;19;20015;-72
2023/07/10 11:57:44;;;;;;;5.57;3.90;;;31.20;1.00;;;;;;7387297;19;20027;-85
2023/07/10 12:00:37;;;;;;;6.65;4.28;;;30.80;1.00;;;;;;7388996;19;20434;-69
2023/07/10 12:03:10;;;;;;;7.45;4.10;;;31.20;1.00;;;;;;7388468;19;20014;-73
2023/07/10 12:05:41;;;;;;;7.70;4.43;;;30.50;1.00;;;;;;7388959;19;20506;-74
2023/07/10 12:08:15;;;;;;;7.03;4.00;;;30.70;1.00;;;;;;7387538;19;20091;-73
2023/07/10 12:10:50;;;;;;;5.75;3.83;;;31.00;1.00;;;;;;7388328;19;20506;-71
2023/07/10 12:13:25;;;;;;;7.45;4.28;;;30.90;1.00;;;;;;7389704;19;20015;-70
2023/07/10 12:15:57;;;;;;;5.47;4.15;;;30.90;1.00;;;;;;7390360;19;20031;-70
2023/07/10 12:18:33;;;;;;;5.43;3.92;;;31.30;1.00;;;;;;7392520;19;20017;-71
2023/07/10 12:21:06;;;;;;;7.78;3.90;;;30.80;1.00;;;;;;7394246;19;20010;-70
2023/07/10 12:23:36;;;;;;;6.38;3.85;;;30.60;1.00;;;;;;7389055;19;20340;-70
2023/07/10 12:26:18;;;;;;;9.13;4.15;;;30.90;1.00;;;;;;7392027;19;20486;-69
2023/07/10 12:29:13;;;;;;;7.55;4.10;;;31.20;1.00;;;;;;7389427;19;20019;-70
2023/07/10 12:31:44;;;;;;;5.50;4.30;;;31.50;1.00;;;;;;7391613;19;20016;-70
2023/07/10 12:34:23;;;;;;;5.85;3.85;;;31.30;1.00;;;;;;7386211;19;20095;-70
2023/07/10 12:36:55;;;;;;;6.07;3.38;;;31.30;1.00;;;;;;7389184;19;20851;-70
2023/07/10 12:39:25;;;;;;;6.90;4.30;;;31.50;1.00;;;;;;7388674;19;20406;-70
2023/07/10 12:41:59;;;;;;;6.18;3.60;;;31.40;1.00;;;;;;7391664;19;20090;-71
2023/07/10 12:44:30;;;;;;;4.97;4.00;;;31.40;1.00;;;;;;7388284;19;20041;-69
2023/07/10 12:47:11;;;;;;;6.28;4.65;;;31.60;1.00;;;;;;7389291;19;20086;-71
2023/07/10 12:49:50;;;;;;;8.23;4.15;;;31.40;1.00;;;;;;7387044;19;20043;-69
2023/07/10 12:52:20;;;;;;;5.93;4.00;;;31.00;1.00;;;;;;7391770;19;20015;-70
2023/07/10 12:54:54;;;;;;;4.38;3.60;;;31.10;1.00;;;;;;7398358;19;20010;-71
2023/07/10 12:57:30;;;;;;;6.78;4.07;;;31.80;1.00;;;;;;7413212;19;20009;-71
2023/07/10 13:00:03;;;;;;;5.25;3.78;;;31.10;1.00;;;;;;7411438;19;20007;-70
2023/07/10 13:02:42;;;;;;;5.38;3.75;;;31.00;1.00;;;;;;7398973;19;20478;-70
2023/07/10 13:05:22;;;;;;;6.18;3.88;;;31.50;1.00;;;;;;7384579;19;20006;-71
2023/07/10 13:07:57;;;;;;;5.97;3.45;;;31.40;1.00;;;;;;7390684;19;20028;-71
2023/07/10 13:10:29;;;;;;;5.75;3.67;;;30.90;1.00;;;;;;7384996;19;20458;-71
2023/07/10 13:13:04;;;;;;;6.82;4.35;;;30.80;1.00;;;;;;7384105;19;20017;-71
2023/07/10 13:15:39;;;;;;;5.70;3.70;;;31.60;1.00;;;;;;7385432;19;20006;-72
2023/07/10 13:18:25;;;;;;;4.55;3.50;;;31.70;1.00;;;;;;7385255;19;20019;-72
2023/07/10 13:20:55;;;;;;;5.63;3.53;;;31.90;1.00;;;;;;7383325;19;20073;-72
2023/07/10 13:23:25;;;;;;;5.93;4.05;;;31.50;1.00;;;;;;7386781;19;20010;-71
2023/07/10 13:25:56;;;;;;;5.93;3.78;;;31.30;1.00;;;;;;7389446;19;20097;-72
2023/07/10 13:28:32;;;;;;;3.47;3.17;;;31.30;1.00;;;;;;7384266;19;20038;-71